createdAt,value
2022-12-06T00:01:31.691Z,2.53
2022-12-06T00:04:02.807Z,3.00
2022-12-06T00:06:33.752Z,6.23
2022-12-06T00:09:02.543Z,4.90
2022-12-06T00:11:32.438Z,8.37
2022-12-06T00:14:03.262Z,4.83
2022-12-06T00:16:33.972Z,5.93
2022-12-06T00:19:02.850Z,3.37
2022-12-06T00:21:32.593Z,5.80
2022-12-06T00:24:02.733Z,8.40
2022-12-06T00:26:31.864Z,4.73
2022-12-06T00:29:02.248Z,6.67
2022-12-06T00:31:33.023Z,4.53
2022-12-06T00:34:01.350Z,3.07
2022-12-06T00:36:30.825Z,4.63
2022-12-06T00:39:01.600Z,5.33
2022-12-06T00:41:29.733Z,4.20
2022-12-06T00:43:57.991Z,5.20
2022-12-06T00:46:29.171Z,1.80
2022-12-06T00:49:00.433Z,3.63
2022-12-06T00:51:29.869Z,6.30
2022-12-06T00:53:59.014Z,12.30
2022-12-06T00:56:28.017Z,4.07
2022-12-06T00:58:56.477Z,4.27
2022-12-06T01:01:26.809Z,9.87
2022-12-06T01:03:57.620Z,7.33
2022-12-06T01:06:30.053Z,4.93
2022-12-06T01:09:00.024Z,2.43
2022-12-06T01:11:29.103Z,2.60
2022-12-06T01:13:57.532Z,5.77
2022-12-06T01:16:28.099Z,3.83
2022-12-06T01:18:58.028Z,3.23
2022-12-06T01:21:29.006Z,2.30
2022-12-06T01:23:58.014Z,4.97
2022-12-06T01:26:29.035Z,4.53
2022-12-06T01:28:58.830Z,4.40
2022-12-06T01:31:30.879Z,6.03
2022-12-06T01:34:03.977Z,7.03
2022-12-06T01:36:33.751Z,3.30
2022-12-06T01:39:06.927Z,6.90
2022-12-06T01:41:35.355Z,3.13
2022-12-06T01:44:04.630Z,4.03
2022-12-06T01:46:38.183Z,4.50
2022-12-06T01:49:16.760Z,5.40
2022-12-06T01:51:50.753Z,2.57
2022-12-06T01:54:21.135Z,2.90
2022-12-06T01:56:50.620Z,4.40
2022-12-06T01:59:19.425Z,3.40
2022-12-06T02:01:48.175Z,2.40
2022-12-06T02:04:17.726Z,2.73
2022-12-06T02:06:48.220Z,2.97
2022-12-06T02:09:17.830Z,6.50
2022-12-06T02:11:47.445Z,2.57
2022-12-06T02:14:19.371Z,3.50
2022-12-06T02:17:03.615Z,3.47
2022-12-06T02:19:57.076Z,4.10
2022-12-06T02:22:37.198Z,3.70
2022-12-06T02:25:26.298Z,2.20
2022-12-06T02:28:20.637Z,3.57
2022-12-06T02:30:57.303Z,1.77
2022-12-06T02:33:32.684Z,9.73
2022-12-06T02:36:08.244Z,13.63
2022-12-06T02:38:40.821Z,1.80
2022-12-06T02:41:14.866Z,2.70
2022-12-06T02:43:48.459Z,2.00
2022-12-06T02:46:22.548Z,1.93
2022-12-06T02:48:54.848Z,2.33
2022-12-06T02:51:24.193Z,1.77
2022-12-06T02:53:55.452Z,2.30
2022-12-06T02:56:25.146Z,1.53
2022-12-06T02:58:54.059Z,1.53
2022-12-06T03:01:26.996Z,2.47
2022-12-06T03:04:34.662Z,2.80
2022-12-06T03:07:13.428Z,2.40
2022-12-06T03:09:53.846Z,1.87
2022-12-06T03:12:31.716Z,5.17
2022-12-06T03:15:10.052Z,3.17
2022-12-06T03:17:43.745Z,2.50
2022-12-06T03:20:17.073Z,2.10
2022-12-06T03:22:51.789Z,1.30
2022-12-06T03:25:20.569Z,2.07
2022-12-06T03:27:50.557Z,1.70
2022-12-06T03:30:19.034Z,2.00
2022-12-06T03:32:51.110Z,7.43
2022-12-06T03:35:24.478Z,4.10
2022-12-06T03:37:58.479Z,2.30
2022-12-06T03:40:30.021Z,4.00
2022-12-06T03:42:59.135Z,2.80
2022-12-06T03:45:34.873Z,5.17
2022-12-06T03:48:10.859Z,4.53
2022-12-06T03:50:45.451Z,2.37
2022-12-06T03:53:13.575Z,3.80
2022-12-06T03:55:42.501Z,3.37
2022-12-06T03:58:10.559Z,2.40
2022-12-06T04:00:38.868Z,4.47
2022-12-06T04:03:08.550Z,2.97
2022-12-06T04:05:36.644Z,6.83
2022-12-06T04:08:05.506Z,2.03
2022-12-06T04:10:33.996Z,1.80
2022-12-06T04:13:02.453Z,3.13
2022-12-06T04:15:32.285Z,2.07
2022-12-06T04:18:14.586Z,4.10
2022-12-06T04:21:07.594Z,4.23
2022-12-06T04:23:37.990Z,4.30
2022-12-06T04:26:08.366Z,4.83
2022-12-06T04:28:54.039Z,2.53
2022-12-06T04:31:39.461Z,3.50
2022-12-06T04:34:25.165Z,2.90
2022-12-06T04:37:13.604Z,9.13
2022-12-06T04:39:41.733Z,5.23
2022-12-06T04:42:27.311Z,5.50
2022-12-06T04:44:55.395Z,3.10
2022-12-06T04:47:23.988Z,3.53
2022-12-06T04:49:52.405Z,2.70
2022-12-06T04:52:21.905Z,3.30
2022-12-06T04:54:50.066Z,5.07
2022-12-06T04:57:21.014Z,4.60
2022-12-06T04:59:50.378Z,4.70
2022-12-06T05:02:18.506Z,8.13
2022-12-06T05:04:47.702Z,4.97
2022-12-06T05:07:16.089Z,3.33
2022-12-06T05:09:45.528Z,6.90
2022-12-06T05:12:13.645Z,5.97
2022-12-06T05:14:41.726Z,5.33
2022-12-06T05:17:09.922Z,5.63
2022-12-06T05:19:37.982Z,5.53
2022-12-06T05:22:06.096Z,6.57
2022-12-06T05:24:34.666Z,12.60
2022-12-06T05:27:04.174Z,7.30
2022-12-06T05:29:32.585Z,18.83
2022-12-06T05:32:00.861Z,6.73
2022-12-06T05:34:29.025Z,6.00
2022-12-06T05:36:57.226Z,6.83
2022-12-06T05:39:25.699Z,7.70
2022-12-06T05:41:53.873Z,4.03
2022-12-06T05:44:23.400Z,4.33
2022-12-06T05:46:51.624Z,7.93
2022-12-06T05:49:19.894Z,5.63
2022-12-06T05:51:48.117Z,7.10
2022-12-06T05:54:16.296Z,8.03
2022-12-06T05:56:44.437Z,3.60
2022-12-06T05:59:12.688Z,8.20
2022-12-06T06:01:42.287Z,5.10
2022-12-06T06:04:10.668Z,5.63
2022-12-06T06:06:38.853Z,9.70
2022-12-06T06:09:07.038Z,4.03
2022-12-06T06:11:35.119Z,7.57
2022-12-06T06:14:03.225Z,6.53
2022-12-06T06:16:32.914Z,3.50
2022-12-06T06:19:02.689Z,10.57
2022-12-06T06:21:30.866Z,5.40
2022-12-06T06:23:59.336Z,4.70
2022-12-06T06:26:27.505Z,6.07
2022-12-06T06:28:55.726Z,4.13
2022-12-06T06:31:23.891Z,6.40
2022-12-06T06:33:52.067Z,4.70
2022-12-06T06:36:21.604Z,4.30
2022-12-06T06:38:49.721Z,8.80
2022-12-06T06:41:17.944Z,5.57
2022-12-06T06:43:46.097Z,4.80
2022-12-06T06:46:14.365Z,8.27
2022-12-06T06:48:42.733Z,10.23
2022-12-06T06:51:12.792Z,11.77
2022-12-06T06:53:42.693Z,8.40
2022-12-06T06:56:11.288Z,6.13
2022-12-06T06:58:40.307Z,23.43
2022-12-06T07:01:09.999Z,13.80
2022-12-06T07:03:38.307Z,6.40
2022-12-06T07:06:10.762Z,4.40
2022-12-06T07:08:42.384Z,6.20
2022-12-06T07:11:11.773Z,7.03
2022-12-06T07:13:41.966Z,4.67
2022-12-06T07:16:15.699Z,5.43
2022-12-06T07:18:44.405Z,3.67
2022-12-06T07:21:14.780Z,3.83
2022-12-06T07:23:44.605Z,6.40
2022-12-06T07:26:14.549Z,8.80
2022-12-06T07:28:45.355Z,14.50
2022-12-06T07:31:15.630Z,13.53
2022-12-06T07:33:45.655Z,7.60
2022-12-06T07:36:15.904Z,7.03
2022-12-06T07:38:49.263Z,9.73
2022-12-06T07:41:35.314Z,21.30
2022-12-06T07:44:26.710Z,12.43
2022-12-06T07:46:57.333Z,11.80
2022-12-06T07:49:26.211Z,27.80
2022-12-06T07:51:55.269Z,26.83
2022-12-06T07:54:25.515Z,33.47
2022-12-06T07:56:56.352Z,38.23
2022-12-06T07:59:24.744Z,27.03
2022-12-06T08:01:53.631Z,42.50
2022-12-06T08:04:22.463Z,33.30
2022-12-06T08:06:50.660Z,15.00
2022-12-06T08:09:19.758Z,17.40
2022-12-06T08:11:49.274Z,4.90
2022-12-06T08:14:17.469Z,8.90
2022-12-06T08:16:46.735Z,14.30
2022-12-06T08:19:15.004Z,5.97
2022-12-06T08:21:44.180Z,12.33
2022-12-06T08:24:13.123Z,16.40
2022-12-06T08:26:41.417Z,10.83
2022-12-06T08:29:11.284Z,21.13
2022-12-06T08:31:39.552Z,17.20
2022-12-06T08:34:08.055Z,5.10
2022-12-06T08:36:36.142Z,9.73
2022-12-06T08:39:04.262Z,6.27
2022-12-06T08:41:49.680Z,9.20
2022-12-06T08:44:20.088Z,17.70
2022-12-06T08:46:48.922Z,5.43
2022-12-06T08:49:18.588Z,9.43
2022-12-06T08:51:47.146Z,7.63
2022-12-06T08:54:16.878Z,13.27
2022-12-06T08:56:45.053Z,28.13
2022-12-06T08:59:13.555Z,9.60
2022-12-06T09:01:43.535Z,10.07
2022-12-06T09:04:13.975Z,5.53
2022-12-06T09:06:43.908Z,5.27
2022-12-06T09:09:13.308Z,9.80
2022-12-06T09:11:42.509Z,14.87
2022-12-06T09:14:19.626Z,32.83
2022-12-06T09:16:52.580Z,16.63
2022-12-06T09:19:21.908Z,19.43
2022-12-06T09:21:49.964Z,7.83
2022-12-06T09:24:19.673Z,12.33
2022-12-06T09:26:48.311Z,30.60
2022-12-06T09:29:17.400Z,42.03
2022-12-06T09:31:45.597Z,9.87
2022-12-06T09:34:15.300Z,5.57
2022-12-06T09:36:47.878Z,8.87
2022-12-06T09:39:19.903Z,11.57
2022-12-06T09:42:16.123Z,10.80
2022-12-06T09:45:03.498Z,14.57
2022-12-06T09:47:43.767Z,13.67
2022-12-06T09:50:25.737Z,9.00
2022-12-06T09:53:09.816Z,17.20
2022-12-06T09:55:53.176Z,9.00
2022-12-06T09:58:33.216Z,13.57
2022-12-06T10:01:12.171Z,8.63
2022-12-06T10:04:23.676Z,7.70
2022-12-06T10:07:05.528Z,5.63
2022-12-06T10:09:43.160Z,8.00
2022-12-06T10:12:19.766Z,11.57
2022-12-06T10:15:15.815Z,6.30
2022-12-06T10:17:56.981Z,8.47
2022-12-06T10:20:35.760Z,2.60
2022-12-06T10:23:14.998Z,3.53
2022-12-06T10:25:49.155Z,7.60
2022-12-06T10:28:28.333Z,7.03
2022-12-06T10:31:04.323Z,7.60
2022-12-06T10:33:39.059Z,5.87
2022-12-06T10:36:09.375Z,7.83
2022-12-06T10:38:43.259Z,4.87
2022-12-06T10:41:17.855Z,1.83
2022-12-06T10:43:53.149Z,9.23
2022-12-06T10:46:45.906Z,1.80
2022-12-06T10:49:23.692Z,4.70
2022-12-06T10:51:58.646Z,7.57
2022-12-06T10:54:34.774Z,10.80
2022-12-06T10:57:07.549Z,8.90
2022-12-06T10:59:40.506Z,11.07
2022-12-06T11:02:23.200Z,11.33
2022-12-06T11:04:54.596Z,14.57
2022-12-06T11:07:28.384Z,12.83
2022-12-06T11:10:01.322Z,3.73
2022-12-06T11:12:33.859Z,5.37
2022-12-06T11:15:14.454Z,7.10
2022-12-06T11:17:47.934Z,17.70
2022-12-06T11:20:25.488Z,18.67
2022-12-06T11:23:06.144Z,5.10
2022-12-06T11:25:45.655Z,19.97
2022-12-06T11:28:26.956Z,19.07
2022-12-06T11:30:57.405Z,7.13
2022-12-06T11:33:31.153Z,15.17
2022-12-06T11:36:02.412Z,13.10
2022-12-06T11:38:30.987Z,12.73
2022-12-06T11:41:00.960Z,3.37
2022-12-06T11:43:35.309Z,10.03
2022-12-06T11:46:04.539Z,10.67
2022-12-06T11:48:34.762Z,12.60
2022-12-06T11:51:03.395Z,11.83
2022-12-06T11:53:36.646Z,17.93
2022-12-06T11:56:13.353Z,16.40
2022-12-06T11:58:45.921Z,12.00
2022-12-06T12:01:14.952Z,14.27
2022-12-06T12:03:45.303Z,11.40
2022-12-06T12:06:31.101Z,3.47
2022-12-06T12:09:01.988Z,3.37
2022-12-06T12:11:33.707Z,1.80
2022-12-06T12:14:03.969Z,5.10
2022-12-06T12:16:35.966Z,6.60
2022-12-06T12:19:08.965Z,13.90
2022-12-06T12:21:40.155Z,29.63
2022-12-06T12:25:17.249Z,17.30
2022-12-06T12:27:54.367Z,12.67
2022-12-06T12:30:37.027Z,7.17
2022-12-06T12:33:22.447Z,5.50
2022-12-06T12:35:54.302Z,2.10
2022-12-06T12:38:28.210Z,5.70
2022-12-06T12:40:59.755Z,21.57
2022-12-06T12:43:33.058Z,33.03
2022-12-06T12:46:17.158Z,25.43
2022-12-06T12:48:47.248Z,4.30
2022-12-06T12:51:28.151Z,4.40
2022-12-06T12:53:58.843Z,12.90
2022-12-06T12:56:28.110Z,13.03
2022-12-06T12:58:58.443Z,16.50
2022-12-06T13:01:38.876Z,22.43
2022-12-06T13:04:16.416Z,11.10
2022-12-06T13:06:49.538Z,15.60
2022-12-06T13:09:25.428Z,8.77
2022-12-06T13:11:59.170Z,17.37
2022-12-06T13:14:29.652Z,11.80
2022-12-06T13:17:02.236Z,10.43
2022-12-06T13:19:35.566Z,6.23
2022-12-06T13:22:06.143Z,4.10
2022-12-06T13:24:37.567Z,4.67
2022-12-06T13:27:12.171Z,3.70
2022-12-06T13:29:47.239Z,3.10
2022-12-06T13:32:20.192Z,11.80
2022-12-06T13:34:51.843Z,12.10
2022-12-06T13:37:30.588Z,7.83
2022-12-06T13:39:59.518Z,4.93
2022-12-06T13:42:44.126Z,3.07
2022-12-06T13:45:45.467Z,2.77
2022-12-06T13:48:39.761Z,4.00
2022-12-06T13:51:13.150Z,6.37
2022-12-06T13:54:18.375Z,16.80
2022-12-06T13:56:46.829Z,12.87
2022-12-06T13:59:41.694Z,7.53
2022-12-06T14:02:52.291Z,11.70
2022-12-06T14:08:33.115Z,6.17
2022-12-06T14:11:28.788Z,6.90
2022-12-06T14:14:08.819Z,6.97
2022-12-06T14:16:40.415Z,8.60
2022-12-06T14:19:17.039Z,8.17
2022-12-06T14:21:52.647Z,4.47
2022-12-06T14:24:35.257Z,2.20
2022-12-06T14:27:14.114Z,3.10
2022-12-06T14:29:43.998Z,3.10
2022-12-06T14:32:12.372Z,1.43
2022-12-06T14:34:40.683Z,2.73
2022-12-06T14:37:20.193Z,10.43
2022-12-06T14:39:55.028Z,1.47
2022-12-06T14:42:40.811Z,1.70
2022-12-06T14:45:15.487Z,4.17
2022-12-06T14:47:45.907Z,4.73
2022-12-06T14:50:28.483Z,7.57
2022-12-06T14:52:59.252Z,5.00
2022-12-06T14:55:31.039Z,2.53
2022-12-06T14:58:01.426Z,3.20
2022-12-06T15:00:36.553Z,4.50
2022-12-06T15:03:23.772Z,4.00
2022-12-06T15:06:09.579Z,3.60
2022-12-06T15:08:39.802Z,3.63
2022-12-06T15:12:03.584Z,1.70
2022-12-06T15:14:48.571Z,2.63
2022-12-06T15:17:19.061Z,2.33
2022-12-06T15:19:49.141Z,4.00
2022-12-06T15:22:24.868Z,4.63
2022-12-06T15:24:56.538Z,2.60
2022-12-06T15:27:28.070Z,2.07
2022-12-06T15:29:56.763Z,3.33
2022-12-06T15:32:27.410Z,3.07
2022-12-06T15:34:55.577Z,1.47
2022-12-06T15:37:38.615Z,2.13
2022-12-06T15:40:09.155Z,1.83
2022-12-06T15:42:38.667Z,2.10
2022-12-06T15:45:07.699Z,3.67
2022-12-06T15:47:35.818Z,5.80
2022-12-06T15:50:04.450Z,10.47
2022-12-06T15:52:32.526Z,12.33
2022-12-06T15:55:01.037Z,5.70
2022-12-06T15:57:29.345Z,16.33
2022-12-06T15:59:58.898Z,5.53
2022-12-06T16:02:27.180Z,9.30
2022-12-06T16:04:55.313Z,12.03
2022-12-06T16:07:23.478Z,20.40
2022-12-06T16:09:51.542Z,16.47
2022-12-06T16:12:19.692Z,8.10
2022-12-06T16:14:47.907Z,10.00
2022-12-06T16:17:17.509Z,8.10
2022-12-06T16:20:03.416Z,6.83
2022-12-06T16:22:49.048Z,3.77
2022-12-06T16:25:18.447Z,3.70
2022-12-06T16:27:46.597Z,3.50
2022-12-06T16:30:15.613Z,5.20
2022-12-06T16:32:45.064Z,6.27
2022-12-06T16:35:13.303Z,9.00
2022-12-06T16:37:41.897Z,6.57
2022-12-06T16:40:19.931Z,6.93
2022-12-06T16:42:48.096Z,4.77
2022-12-06T16:45:16.650Z,3.60
2022-12-06T16:47:46.436Z,3.10
2022-12-06T16:50:22.111Z,3.00
2022-12-06T16:52:50.282Z,2.63
2022-12-06T16:55:18.636Z,3.10
2022-12-06T16:57:46.919Z,3.90
2022-12-06T17:00:16.455Z,4.50
2022-12-06T17:02:46.076Z,5.23
2022-12-06T17:05:19.138Z,4.30
2022-12-06T17:07:47.385Z,3.30
2022-12-06T17:10:18.249Z,5.40
2022-12-06T17:12:48.405Z,8.27
2022-12-06T17:15:18.794Z,2.53
2022-12-06T17:17:49.174Z,3.07
2022-12-06T17:20:18.601Z,2.83
2022-12-06T17:22:47.040Z,2.30
2022-12-06T17:25:16.223Z,3.03
2022-12-06T17:27:44.546Z,4.30
2022-12-06T17:30:18.048Z,2.20
2022-12-06T17:32:48.814Z,2.47
2022-12-06T17:35:17.164Z,6.50
2022-12-06T17:37:45.527Z,9.70
2022-12-06T17:40:14.833Z,4.20
2022-12-06T17:43:00.002Z,2.67
2022-12-06T17:45:28.216Z,7.23
2022-12-06T17:47:57.792Z,3.53
2022-12-06T17:50:25.842Z,2.23
2022-12-06T17:52:53.954Z,3.30
2022-12-06T17:55:22.118Z,3.53
2022-12-06T17:57:50.316Z,4.77
2022-12-06T18:00:19.058Z,2.60
2022-12-06T18:02:48.767Z,4.63
2022-12-06T18:05:18.722Z,5.53
2022-12-06T18:07:46.992Z,6.57
2022-12-06T18:10:15.219Z,2.10
2022-12-06T18:12:43.322Z,2.10
2022-12-06T18:15:33.682Z,1.70
2022-12-06T18:18:01.788Z,2.63
2022-12-06T18:20:31.622Z,3.80
2022-12-06T18:22:59.745Z,1.93
2022-12-06T18:25:27.877Z,3.00
2022-12-06T18:27:56.010Z,7.00
2022-12-06T18:30:24.171Z,2.33
2022-12-06T18:32:52.248Z,3.17
2022-12-06T18:35:20.411Z,5.50
2022-12-06T18:37:49.892Z,4.80
2022-12-06T18:40:18.147Z,2.30
2022-12-06T18:42:46.341Z,2.30
2022-12-06T18:45:14.516Z,4.47
2022-12-06T18:47:42.607Z,2.37
2022-12-06T18:50:10.764Z,3.63
2022-12-06T18:52:39.338Z,7.50
2022-12-06T18:55:10.263Z,2.60
2022-12-06T18:57:38.722Z,3.73
2022-12-06T19:00:08.231Z,2.80
2022-12-06T19:02:36.522Z,2.30
2022-12-06T19:05:05.264Z,3.60
2022-12-06T19:07:33.628Z,3.20
2022-12-06T19:10:02.229Z,2.60
2022-12-06T19:12:31.946Z,2.67
2022-12-06T19:15:00.033Z,3.73
2022-12-06T19:17:28.209Z,2.63
2022-12-06T19:19:56.308Z,3.30
2022-12-06T19:22:24.474Z,4.73
2022-12-06T19:24:52.679Z,3.27
2022-12-06T19:27:20.925Z,2.77
2022-12-06T19:29:50.439Z,2.17
2022-12-06T19:32:18.556Z,2.30
2022-12-06T19:34:46.776Z,2.57
2022-12-06T19:37:15.025Z,5.83
2022-12-06T19:39:43.317Z,1.90
2022-12-06T19:42:29.452Z,2.83
2022-12-06T19:44:59.027Z,3.53
2022-12-06T19:47:27.109Z,4.30
2022-12-06T19:49:55.311Z,2.20
2022-12-06T19:52:30.565Z,1.77
2022-12-06T19:54:59.021Z,8.10
2022-12-06T19:57:27.171Z,3.50
2022-12-06T19:59:56.549Z,2.33
2022-12-06T20:02:26.257Z,4.13
2022-12-06T20:04:54.351Z,2.73
2022-12-06T20:07:22.487Z,3.63
2022-12-06T20:09:50.785Z,2.23
2022-12-06T20:12:18.936Z,2.03
2022-12-06T20:14:48.916Z,1.70
2022-12-06T20:17:19.198Z,1.60
2022-12-06T20:19:49.398Z,2.87
2022-12-06T20:22:19.489Z,2.80
2022-12-06T20:24:48.424Z,2.53
2022-12-06T20:27:16.698Z,2.20
2022-12-06T20:29:44.814Z,2.37
2022-12-06T20:32:12.893Z,3.33
2022-12-06T20:34:41.335Z,4.10
2022-12-06T20:37:11.191Z,3.00
2022-12-06T20:39:39.386Z,3.20
2022-12-06T20:42:07.622Z,3.13
2022-12-06T20:44:36.223Z,2.40
2022-12-06T20:47:04.877Z,2.37
2022-12-06T20:49:33.502Z,12.87
2022-12-06T20:52:03.012Z,8.80
2022-12-06T20:54:32.615Z,6.13
2022-12-06T20:57:00.924Z,3.00
2022-12-06T20:59:29.580Z,2.30
2022-12-06T21:01:57.934Z,2.27
2022-12-06T21:04:26.706Z,2.50
2022-12-06T21:06:55.564Z,3.97
2022-12-06T21:09:24.410Z,1.73
2022-12-06T21:11:53.944Z,1.97
2022-12-06T21:14:22.305Z,3.57
2022-12-06T21:16:50.452Z,5.77
2022-12-06T21:19:20.613Z,3.43
2022-12-06T21:21:51.453Z,6.17
2022-12-06T21:24:21.415Z,7.70
2022-12-06T21:26:50.743Z,3.87
2022-12-06T21:29:26.605Z,3.50
2022-12-06T21:31:56.526Z,8.10
2022-12-06T21:34:24.604Z,2.67
2022-12-06T21:36:52.721Z,9.63
2022-12-06T21:39:20.960Z,6.63
2022-12-06T21:41:50.065Z,2.07
2022-12-06T21:44:20.359Z,4.70
2022-12-06T21:46:52.555Z,2.70
2022-12-06T21:49:20.859Z,3.40
2022-12-06T21:51:48.920Z,4.47
2022-12-06T21:54:17.002Z,1.83
2022-12-06T21:56:45.334Z,6.77
2022-12-06T21:59:13.466Z,10.87
2022-12-06T22:01:43.041Z,11.00
2022-12-06T22:04:11.131Z,13.40
2022-12-06T22:06:39.343Z,7.30
2022-12-06T22:09:07.654Z,4.83
2022-12-06T22:11:36.295Z,4.27
2022-12-06T22:14:06.938Z,2.87
2022-12-06T22:16:35.227Z,2.97
2022-12-06T22:19:05.186Z,3.27
2022-12-06T22:21:33.786Z,4.00
2022-12-06T22:24:02.086Z,3.40
2022-12-06T22:26:32.100Z,4.00
2022-12-06T22:29:01.277Z,4.63
2022-12-06T22:31:31.569Z,2.83
2022-12-06T22:34:00.695Z,4.40
2022-12-06T22:36:31.079Z,4.23
2022-12-06T22:39:00.843Z,9.93
2022-12-06T22:41:29.961Z,9.20
2022-12-06T22:44:00.410Z,5.37
2022-12-06T22:46:29.391Z,5.23
2022-12-06T22:48:58.273Z,9.80
2022-12-06T22:51:29.138Z,5.30
2022-12-06T22:54:00.295Z,5.10
2022-12-06T22:56:30.296Z,9.80
2022-12-06T22:59:05.902Z,6.23
2022-12-06T23:01:36.172Z,4.50
2022-12-06T23:04:06.988Z,8.43
2022-12-06T23:06:36.946Z,6.30
2022-12-06T23:09:08.410Z,6.37
2022-12-06T23:11:37.834Z,5.73
2022-12-06T23:14:07.774Z,3.67
2022-12-06T23:16:36.440Z,5.20
2022-12-06T23:19:05.785Z,8.77
2022-12-06T23:21:35.624Z,8.17
2022-12-06T23:24:05.532Z,11.20
2022-12-06T23:26:37.530Z,7.60
2022-12-06T23:29:06.134Z,7.90
2022-12-06T23:31:35.895Z,3.83
2022-12-06T23:34:06.667Z,3.77
2022-12-06T23:36:36.488Z,2.80
2022-12-06T23:39:06.492Z,17.50
2022-12-06T23:41:37.090Z,16.23
2022-12-06T23:44:05.809Z,10.73
2022-12-06T23:46:36.020Z,4.50
2022-12-06T23:49:05.026Z,4.87
2022-12-06T23:51:35.558Z,5.10
2022-12-06T23:54:05.748Z,3.13
2022-12-06T23:56:37.078Z,19.37
2022-12-06T23:59:07.365Z,5.93
